メインページ
METAR-TAF:

METAR-TAF

空港 :

ヤップ州, Yap Island, ミクロネシア

ヤップ国際空港

緯度: 09-29N, 経度: 138-05E, 海抜: 28m

現時点の気象観測

当レポートは47分前の22:51(UTC)に作成
東/南東の風 7kt
気温 30°C
湿度 79%
気圧 1009 hPa
視程: 19.3km
高度1600ftの雲はほとんどない
高度13000ftの千切れ雲あり
高度30000ftの千切れ雲あり

METAR: PTYA 232251Z 11007KT 12SM FEW016 BKN130 BKN300 30/26 A2979 RMK SLP090 T02970259

時間: 09:38 (23:38 UTC)

予報

当レポートは6時間0分前の17:38(UTC)に作成
予報は23日の 18時(UTC)から 24日の 18時(UTC)まで有効
の風 10kt
視程: 10km
高度1600ftの雲は散在している
高度12000ftの千切れ雲あり
高度30000ftの曇り
近辺でにわか雨

TAF: PTYA 231738Z 2318/2418 08010KT P6SM VCSH SCT016 BKN120 OVC300

4,000以上の空港の気象観測と天気予報(METAR報とTAF報)

利用可能な観測所は地図上に黄色い丸と赤い丸で示す。

丸の上にカーソルを重ねると観測所名を参照できる。

次にクリックすると気象観測と天気予報を参照できる。

マップの切り替え:黒色「×」印の緑ボタンをクリックして拡大、「-」印の緑ボタンをクリックして縮小、緑色の三角印をクリックして隣りの地図に切り替え


METAR-TAF: